sensor_id;sensor_type;location;lat;lon;timestamp;P1;durP1;ratioP1;P2;durP2;ratioP2
55316;SDS011;41178;48.956;8.130;2023-09-19T00:01:40;5.10;;;2.03;;
55316;SDS011;41178;48.956;8.130;2023-09-19T00:06:42;1.83;;;1.73;;
55316;SDS011;41178;48.956;8.130;2023-09-19T00:11:45;3.43;;;2.00;;
55316;SDS011;41178;48.956;8.130;2023-09-19T00:16:48;1.60;;;1.50;;
55316;SDS011;41178;48.956;8.130;2023-09-19T00:21:51;3.70;;;1.80;;
55316;SDS011;41178;48.956;8.130;2023-09-19T00:26:54;3.00;;;1.70;;
55316;SDS011;41178;48.956;8.130;2023-09-19T00:31:57;1.80;;;1.70;;
55316;SDS011;41178;48.956;8.130;2023-09-19T00:36:59;2.03;;;1.60;;
55316;SDS011;41178;48.956;8.130;2023-09-19T00:42:00;4.03;;;1.50;;
55316;SDS011;41178;48.956;8.130;2023-09-19T00:47:06;3.43;;;1.50;;
55316;SDS011;41178;48.956;8.130;2023-09-19T00:52:08;2.97;;;1.40;;
55316;SDS011;41178;48.956;8.130;2023-09-19T00:57:11;3.77;;;1.57;;
55316;SDS011;41178;48.956;8.130;2023-09-19T01:02:13;2.30;;;1.77;;
55316;SDS011;41178;48.956;8.130;2023-09-19T01:07:17;3.43;;;1.30;;
55316;SDS011;41178;48.956;8.130;2023-09-19T01:12:22;3.27;;;2.00;;
55316;SDS011;41178;48.956;8.130;2023-09-19T01:17:35;1.57;;;1.43;;
55316;SDS011;41178;48.956;8.130;2023-09-19T01:22:48;2.53;;;1.80;;
55316;SDS011;41178;48.956;8.130;2023-09-19T01:39:06;2.07;;;1.80;;
55316;SDS011;41178;48.956;8.130;2023-09-19T01:44:13;2.57;;;1.80;;
55316;SDS011;41178;48.956;8.130;2023-09-19T01:54:30;3.33;;;1.93;;
55316;SDS011;41178;48.956;8.130;2023-09-19T01:59:41;4.60;;;1.83;;
55316;SDS011;41178;48.956;8.130;2023-09-19T02:04:48;2.47;;;1.80;;
55316;SDS011;41178;48.956;8.130;2023-09-19T02:09:51;3.13;;;1.70;;
55316;SDS011;41178;48.956;8.130;2023-09-19T02:14:53;1.73;;;1.60;;
55316;SDS011;41178;48.956;8.130;2023-09-19T02:19:55;1.70;;;1.60;;
55316;SDS011;41178;48.956;8.130;2023-09-19T02:24:57;2.07;;;1.60;;
55316;SDS011;41178;48.956;8.130;2023-09-19T02:30:02;3.40;;;1.60;;
55316;SDS011;41178;48.956;8.130;2023-09-19T02:35:05;2.30;;;1.73;;
55316;SDS011;41178;48.956;8.130;2023-09-19T02:40:07;2.70;;;1.83;;
55316;SDS011;41178;48.956;8.130;2023-09-19T02:45:20;2.23;;;1.80;;
55316;SDS011;41178;48.956;8.130;2023-09-19T02:50:23;4.30;;;1.90;;
55316;SDS011;41178;48.956;8.130;2023-09-19T02:55:25;2.93;;;2.20;;
55316;SDS011;41178;48.956;8.130;2023-09-19T03:00:27;5.93;;;1.97;;
55316;SDS011;41178;48.956;8.130;2023-09-19T03:05:29;1.93;;;1.70;;
55316;SDS011;41178;48.956;8.130;2023-09-19T03:10:34;2.57;;;1.67;;
55316;SDS011;41178;48.956;8.130;2023-09-19T03:15:41;3.50;;;1.80;;
55316;SDS011;41178;48.956;8.130;2023-09-19T03:20:56;3.40;;;2.03;;
55316;SDS011;41178;48.956;8.130;2023-09-19T03:25:58;2.97;;;2.00;;
55316;SDS011;41178;48.956;8.130;2023-09-19T03:31:01;2.23;;;1.77;;
55316;SDS011;41178;48.956;8.130;2023-09-19T03:36:07;3.57;;;2.27;;
55316;SDS011;41178;48.956;8.130;2023-09-19T03:41:09;3.10;;;1.67;;
55316;SDS011;41178;48.956;8.130;2023-09-19T03:46:10;1.87;;;1.70;;
55316;SDS011;41178;48.956;8.130;2023-09-19T03:51:14;4.23;;;2.00;;
55316;SDS011;41178;48.956;8.130;2023-09-19T03:56:15;3.17;;;1.80;;
55316;SDS011;41178;48.956;8.130;2023-09-19T04:01:17;2.23;;;1.73;;
55316;SDS011;41178;48.956;8.130;2023-09-19T04:06:20;4.57;;;1.80;;
55316;SDS011;41178;48.956;8.130;2023-09-19T04:11:21;2.20;;;1.95;;
55316;SDS011;41178;48.956;8.130;2023-09-19T04:16:23;5.05;;;2.08;;
55316;SDS011;41178;48.956;8.130;2023-09-19T04:21:25;2.83;;;1.73;;
55316;SDS011;41178;48.956;8.130;2023-09-19T04:26:28;2.83;;;2.10;;
55316;SDS011;41178;48.956;8.130;2023-09-19T04:31:29;5.20;;;2.00;;
55316;SDS011;41178;48.956;8.130;2023-09-19T04:36:33;2.50;;;1.77;;
55316;SDS011;41178;48.956;8.130;2023-09-19T04:41:36;2.78;;;2.20;;
55316;SDS011;41178;48.956;8.130;2023-09-19T04:46:40;2.00;;;1.73;;
55316;SDS011;41178;48.956;8.130;2023-09-19T04:51:42;4.13;;;2.10;;
55316;SDS011;41178;48.956;8.130;2023-09-19T04:56:44;4.83;;;2.10;;
55316;SDS011;41178;48.956;8.130;2023-09-19T05:01:46;2.27;;;2.07;;
55316;SDS011;41178;48.956;8.130;2023-09-19T05:06:48;3.80;;;2.07;;
55316;SDS011;41178;48.956;8.130;2023-09-19T05:11:50;3.23;;;2.23;;
55316;SDS011;41178;48.956;8.130;2023-09-19T05:16:54;3.10;;;2.37;;
55316;SDS011;41178;48.956;8.130;2023-09-19T05:21:56;4.13;;;2.40;;
55316;SDS011;41178;48.956;8.130;2023-09-19T05:26:58;5.77;;;2.40;;
55316;SDS011;41178;48.956;8.130;2023-09-19T05:31:59;3.57;;;2.43;;
55316;SDS011;41178;48.956;8.130;2023-09-19T05:37:01;2.53;;;2.23;;
55316;SDS011;41178;48.956;8.130;2023-09-19T05:42:03;4.00;;;2.40;;
55316;SDS011;41178;48.956;8.130;2023-09-19T05:47:05;2.30;;;1.90;;
55316;SDS011;41178;48.956;8.130;2023-09-19T05:52:10;3.43;;;2.70;;
55316;SDS011;41178;48.956;8.130;2023-09-19T05:57:12;3.67;;;2.50;;
55316;SDS011;41178;48.956;8.130;2023-09-19T06:02:14;3.43;;;2.10;;
55316;SDS011;41178;48.956;8.130;2023-09-19T06:07:16;5.20;;;2.53;;
55316;SDS011;41178;48.956;8.130;2023-09-19T06:12:18;6.17;;;2.40;;
55316;SDS011;41178;48.956;8.130;2023-09-19T06:17:20;2.97;;;2.13;;
55316;SDS011;41178;48.956;8.130;2023-09-19T06:22:23;3.43;;;2.10;;
55316;SDS011;41178;48.956;8.130;2023-09-19T06:27:25;2.30;;;2.10;;
55316;SDS011;41178;48.956;8.130;2023-09-19T06:32:27;2.73;;;2.00;;
55316;SDS011;41178;48.956;8.130;2023-09-19T06:37:30;3.23;;;2.33;;
55316;SDS011;41178;48.956;8.130;2023-09-19T06:42:32;3.30;;;2.40;;
55316;SDS011;41178;48.956;8.130;2023-09-19T06:47:34;3.70;;;2.27;;
55316;SDS011;41178;48.956;8.130;2023-09-19T06:52:36;2.77;;;2.17;;
55316;SDS011;41178;48.956;8.130;2023-09-19T06:57:39;4.43;;;2.07;;
55316;SDS011;41178;48.956;8.130;2023-09-19T07:02:42;3.30;;;2.23;;
55316;SDS011;41178;48.956;8.130;2023-09-19T07:07:44;7.27;;;2.63;;
55316;SDS011;41178;48.956;8.130;2023-09-19T07:12:46;3.60;;;2.00;;
55316;SDS011;41178;48.956;8.130;2023-09-19T07:17:48;3.00;;;1.90;;
55316;SDS011;41178;48.956;8.130;2023-09-19T07:22:50;2.40;;;2.17;;
55316;SDS011;41178;48.956;8.130;2023-09-19T07:27:52;2.20;;;1.70;;
55316;SDS011;41178;48.956;8.130;2023-09-19T07:32:56;4.20;;;2.20;;
55316;SDS011;41178;48.956;8.130;2023-09-19T07:37:58;2.90;;;2.00;;
55316;SDS011;41178;48.956;8.130;2023-09-19T07:43:02;3.70;;;2.17;;
55316;SDS011;41178;48.956;8.130;2023-09-19T07:48:06;3.67;;;1.73;;
55316;SDS011;41178;48.956;8.130;2023-09-19T07:53:15;2.30;;;1.63;;
55316;SDS011;41178;48.956;8.130;2023-09-19T07:58:18;2.80;;;1.50;;
55316;SDS011;41178;48.956;8.130;2023-09-19T08:03:20;5.20;;;1.80;;
55316;SDS011;41178;48.956;8.130;2023-09-19T08:08:22;1.67;;;1.37;;
55316;SDS011;41178;48.956;8.130;2023-09-19T08:13:24;2.80;;;1.97;;
55316;SDS011;41178;48.956;8.130;2023-09-19T08:18:27;2.30;;;1.63;;
55316;SDS011;41178;48.956;8.130;2023-09-19T08:23:31;5.37;;;2.07;;
55316;SDS011;41178;48.956;8.130;2023-09-19T08:28:34;2.92;;;1.50;;
55316;SDS011;41178;48.956;8.130;2023-09-19T08:33:36;3.17;;;1.40;;
55316;SDS011;41178;48.956;8.130;2023-09-19T08:38:39;1.67;;;1.40;;
55316;SDS011;41178;48.956;8.130;2023-09-19T08:43:41;2.73;;;1.70;;
55316;SDS011;41178;48.956;8.130;2023-09-19T08:48:54;2.47;;;1.30;;
55316;SDS011;41178;48.956;8.130;2023-09-19T08:54:07;2.67;;;1.30;;
55316;SDS011;41178;48.956;8.130;2023-09-19T08:59:09;1.58;;;1.48;;
55316;SDS011;41178;48.956;8.130;2023-09-19T09:04:13;1.83;;;1.73;;
55316;SDS011;41178;48.956;8.130;2023-09-19T09:09:15;3.40;;;1.50;;
55316;SDS011;41178;48.956;8.130;2023-09-19T09:14:17;2.33;;;1.70;;
55316;SDS011;41178;48.956;8.130;2023-09-19T09:19:19;2.75;;;1.65;;
55316;SDS011;41178;48.956;8.130;2023-09-19T09:24:26;4.10;;;1.70;;
55316;SDS011;41178;48.956;8.130;2023-09-19T09:29:40;3.42;;;2.33;;
55316;SDS011;41178;48.956;8.130;2023-09-19T09:34:49;3.53;;;1.67;;
55316;SDS011;41178;48.956;8.130;2023-09-19T09:39:57;3.55;;;1.50;;
55316;SDS011;41178;48.956;8.130;2023-09-19T09:45:20;3.03;;;2.28;;
55316;SDS011;41178;48.956;8.130;2023-09-19T09:50:35;3.78;;;1.50;;
55316;SDS011;41178;48.956;8.130;2023-09-19T09:56:05;5.45;;;2.13;;
55316;SDS011;41178;48.956;8.130;2023-09-19T10:01:07;2.28;;;1.90;;
55316;SDS011;41178;48.956;8.130;2023-09-19T10:06:16;1.80;;;1.70;;
55316;SDS011;41178;48.956;8.130;2023-09-19T10:11:24;4.10;;;1.90;;
55316;SDS011;41178;48.956;8.130;2023-09-19T10:16:31;2.40;;;1.67;;
55316;SDS011;41178;48.956;8.130;2023-09-19T10:21:36;2.35;;;1.75;;
55316;SDS011;41178;48.956;8.130;2023-09-19T10:26:37;3.45;;;1.70;;
55316;SDS011;41178;48.956;8.130;2023-09-19T10:31:40;4.68;;;1.83;;
55316;SDS011;41178;48.956;8.130;2023-09-19T10:36:49;4.32;;;1.98;;
55316;SDS011;41178;48.956;8.130;2023-09-19T10:41:54;4.18;;;2.22;;
55316;SDS011;41178;48.956;8.130;2023-09-19T10:47:00;3.00;;;1.80;;
55316;SDS011;41178;48.956;8.130;2023-09-19T10:52:04;4.28;;;1.67;;
55316;SDS011;41178;48.956;8.130;2023-09-19T10:57:12;2.20;;;1.80;;
55316;SDS011;41178;48.956;8.130;2023-09-19T11:06:17;4.20;;;2.17;;
55316;SDS011;41178;48.956;8.130;2023-09-19T11:11:42;2.83;;;2.08;;
55316;SDS011;41178;48.956;8.130;2023-09-19T11:22:17;1.65;;;1.55;;
55316;SDS011;41178;48.956;8.130;2023-09-19T11:27:23;2.67;;;2.00;;
55316;SDS011;41178;48.956;8.130;2023-09-19T11:33:15;2.63;;;1.50;;
55316;SDS011;41178;48.956;8.130;2023-09-19T11:38:09;2.38;;;1.60;;
55316;SDS011;41178;48.956;8.130;2023-09-19T11:43:35;3.72;;;2.03;;
55316;SDS011;41178;48.956;8.130;2023-09-19T11:48:36;2.30;;;1.70;;
55316;SDS011;41178;48.956;8.130;2023-09-19T11:53:43;1.58;;;1.48;;
55316;SDS011;41178;48.956;8.130;2023-09-19T11:58:46;4.95;;;1.75;;
55316;SDS011;41178;48.956;8.130;2023-09-19T12:03:54;1.90;;;1.58;;
55316;SDS011;41178;48.956;8.130;2023-09-19T12:08:59;3.25;;;2.20;;
55316;SDS011;41178;48.956;8.130;2023-09-19T12:14:02;1.40;;;1.30;;
55316;SDS011;41178;48.956;8.130;2023-09-19T12:19:18;3.53;;;1.67;;
55316;SDS011;41178;48.956;8.130;2023-09-19T12:24:22;1.73;;;1.40;;
55316;SDS011;41178;48.956;8.130;2023-09-19T12:29:27;1.77;;;1.55;;
55316;SDS011;41178;48.956;8.130;2023-09-19T12:34:31;1.65;;;1.48;;
55316;SDS011;41178;48.956;8.130;2023-09-19T12:39:36;1.88;;;1.60;;
55316;SDS011;41178;48.956;8.130;2023-09-19T12:44:43;2.47;;;1.60;;
55316;SDS011;41178;48.956;8.130;2023-09-19T12:50:11;1.67;;;1.38;;
55316;SDS011;41178;48.956;8.130;2023-09-19T13:00:32;2.28;;;1.60;;
55316;SDS011;41178;48.956;8.130;2023-09-19T13:16:08;2.95;;;1.60;;
55316;SDS011;41178;48.956;8.130;2023-09-19T13:21:14;3.35;;;1.30;;
55316;SDS011;41178;48.956;8.130;2023-09-19T13:26:25;1.83;;;1.40;;
55316;SDS011;41178;48.956;8.130;2023-09-19T13:31:29;2.33;;;1.88;;
55316;SDS011;41178;48.956;8.130;2023-09-19T13:36:31;2.25;;;1.35;;
55316;SDS011;41178;48.956;8.130;2023-09-19T13:41:32;2.75;;;1.30;;
55316;SDS011;41178;48.956;8.130;2023-09-19T13:46:34;2.42;;;1.30;;
55316;SDS011;41178;48.956;8.130;2023-09-19T13:51:36;2.00;;;1.45;;
55316;SDS011;41178;48.956;8.130;2023-09-19T13:56:38;2.80;;;1.40;;
55316;SDS011;41178;48.956;8.130;2023-09-19T14:01:41;1.25;;;1.20;;
55316;SDS011;41178;48.956;8.130;2023-09-19T14:06:43;3.10;;;1.20;;
55316;SDS011;41178;48.956;8.130;2023-09-19T14:11:45;2.08;;;1.52;;
55316;SDS011;41178;48.956;8.130;2023-09-19T14:16:49;3.28;;;1.77;;
55316;SDS011;41178;48.956;8.130;2023-09-19T14:21:51;2.03;;;1.40;;
55316;SDS011;41178;48.956;8.130;2023-09-19T14:26:53;1.38;;;1.27;;
55316;SDS011;41178;48.956;8.130;2023-09-19T14:31:55;2.60;;;1.30;;
55316;SDS011;41178;48.956;8.130;2023-09-19T14:36:59;2.30;;;1.40;;
55316;SDS011;41178;48.956;8.130;2023-09-19T14:42:00;4.03;;;1.33;;
55316;SDS011;41178;48.956;8.130;2023-09-19T14:47:02;1.45;;;1.35;;
55316;SDS011;41178;48.956;8.130;2023-09-19T14:52:07;2.25;;;1.40;;
55316;SDS011;41178;48.956;8.130;2023-09-19T14:57:09;1.50;;;1.40;;
55316;SDS011;41178;48.956;8.130;2023-09-19T15:02:11;1.65;;;1.55;;
55316;SDS011;41178;48.956;8.130;2023-09-19T15:07:13;1.70;;;1.20;;
55316;SDS011;41178;48.956;8.130;2023-09-19T15:12:16;1.48;;;1.38;;
55316;SDS011;41178;48.956;8.130;2023-09-19T15:17:18;1.65;;;1.40;;
55316;SDS011;41178;48.956;8.130;2023-09-19T15:22:20;1.45;;;1.35;;
55316;SDS011;41178;48.956;8.130;2023-09-19T15:27:23;1.20;;;1.20;;
55316;SDS011;41178;48.956;8.130;2023-09-19T15:32:25;3.13;;;1.67;;
55316;SDS011;41178;48.956;8.130;2023-09-19T15:37:27;1.27;;;1.20;;
55316;SDS011;41178;48.956;8.130;2023-09-19T15:42:28;1.50;;;1.40;;
55316;SDS011;41178;48.956;8.130;2023-09-19T15:47:30;1.67;;;1.30;;
55316;SDS011;41178;48.956;8.130;2023-09-19T15:52:32;1.85;;;1.65;;
55316;SDS011;41178;48.956;8.130;2023-09-19T15:57:36;2.25;;;1.40;;
55316;SDS011;41178;48.956;8.130;2023-09-19T16:02:39;1.13;;;1.10;;
55316;SDS011;41178;48.956;8.130;2023-09-19T16:07:42;1.63;;;1.30;;
55316;SDS011;41178;48.956;8.130;2023-09-19T16:12:45;3.25;;;1.30;;
55316;SDS011;41178;48.956;8.130;2023-09-19T16:17:47;1.48;;;1.38;;
55316;SDS011;41178;48.956;8.130;2023-09-19T16:22:48;1.30;;;1.20;;
55316;SDS011;41178;48.956;8.130;2023-09-19T16:27:50;1.70;;;1.42;;
55316;SDS011;41178;48.956;8.130;2023-09-19T16:32:52;1.40;;;1.30;;
55316;SDS011;41178;48.956;8.130;2023-09-19T16:37:53;6.03;;;1.35;;
55316;SDS011;41178;48.956;8.130;2023-09-19T16:42:55;2.45;;;1.08;;
55316;SDS011;41178;48.956;8.130;2023-09-19T16:47:57;1.40;;;1.10;;
55316;SDS011;41178;48.956;8.130;2023-09-19T16:52:59;2.80;;;1.20;;
55316;SDS011;41178;48.956;8.130;2023-09-19T16:58:01;1.27;;;1.17;;
55316;SDS011;41178;48.956;8.130;2023-09-19T17:03:02;4.13;;;1.58;;
55316;SDS011;41178;48.956;8.130;2023-09-19T17:08:11;1.73;;;1.50;;
55316;SDS011;41178;48.956;8.130;2023-09-19T17:13:13;2.00;;;1.25;;
55316;SDS011;41178;48.956;8.130;2023-09-19T17:18:18;3.40;;;1.55;;
55316;SDS011;41178;48.956;8.130;2023-09-19T17:23:21;1.27;;;1.17;;
55316;SDS011;41178;48.956;8.130;2023-09-19T17:28:22;3.22;;;1.30;;
55316;SDS011;41178;48.956;8.130;2023-09-19T17:33:25;1.30;;;1.20;;
55316;SDS011;41178;48.956;8.130;2023-09-19T17:38:27;1.38;;;1.27;;
55316;SDS011;41178;48.956;8.130;2023-09-19T17:43:32;1.35;;;1.00;;
55316;SDS011;41178;48.956;8.130;2023-09-19T17:48:39;1.40;;;1.30;;
55316;SDS011;41178;48.956;8.130;2023-09-19T17:53:45;2.05;;;1.20;;
55316;SDS011;41178;48.956;8.130;2023-09-19T17:58:48;2.35;;;1.25;;
55316;SDS011;41178;48.956;8.130;2023-09-19T18:04:01;1.40;;;1.30;;
55316;SDS011;41178;48.956;8.130;2023-09-19T18:09:04;3.00;;;1.30;;
55316;SDS011;41178;48.956;8.130;2023-09-19T18:14:09;1.35;;;1.25;;
55316;SDS011;41178;48.956;8.130;2023-09-19T18:19:11;1.00;;;1.00;;
55316;SDS011;41178;48.956;8.130;2023-09-19T18:24:14;1.50;;;1.40;;
55316;SDS011;41178;48.956;8.130;2023-09-19T18:29:15;2.33;;;1.30;;
55316;SDS011;41178;48.956;8.130;2023-09-19T18:34:17;6.38;;;1.40;;
55316;SDS011;41178;48.956;8.130;2023-09-19T18:39:20;1.33;;;1.15;;
55316;SDS011;41178;48.956;8.130;2023-09-19T18:44:24;1.77;;;1.30;;
55316;SDS011;41178;48.956;8.130;2023-09-19T18:49:26;1.38;;;1.10;;
55316;SDS011;41178;48.956;8.130;2023-09-19T18:54:28;1.30;;;1.20;;
55316;SDS011;41178;48.956;8.130;2023-09-19T18:59:30;2.92;;;1.13;;
55316;SDS011;41178;48.956;8.130;2023-09-19T19:04:32;1.02;;;1.02;;
55316;SDS011;41178;48.956;8.130;2023-09-19T19:09:34;1.60;;;1.50;;
55316;SDS011;41178;48.956;8.130;2023-09-19T19:14:35;1.73;;;1.27;;
55316;SDS011;41178;48.956;8.130;2023-09-19T19:19:37;1.52;;;1.40;;
55316;SDS011;41178;48.956;8.130;2023-09-19T19:24:40;1.52;;;1.40;;
55316;SDS011;41178;48.956;8.130;2023-09-19T19:29:42;1.52;;;1.20;;
55316;SDS011;41178;48.956;8.130;2023-09-19T19:34:45;1.70;;;1.38;;
55316;SDS011;41178;48.956;8.130;2023-09-19T19:39:48;1.75;;;1.63;;
55316;SDS011;41178;48.956;8.130;2023-09-19T19:44:52;2.80;;;1.23;;
55316;SDS011;41178;48.956;8.130;2023-09-19T19:49:56;2.15;;;1.33;;
55316;SDS011;41178;48.956;8.130;2023-09-19T19:55:00;1.13;;;1.13;;
55316;SDS011;41178;48.956;8.130;2023-09-19T20:00:05;1.50;;;1.40;;
55316;SDS011;41178;48.956;8.130;2023-09-19T20:05:08;1.67;;;1.58;;
55316;SDS011;41178;48.956;8.130;2023-09-19T20:10:13;2.47;;;1.35;;
55316;SDS011;41178;48.956;8.130;2023-09-19T20:15:20;3.35;;;1.58;;
55316;SDS011;41178;48.956;8.130;2023-09-19T20:20:26;2.05;;;1.40;;
55316;SDS011;41178;48.956;8.130;2023-09-19T20:25:30;1.40;;;1.30;;
55316;SDS011;41178;48.956;8.130;2023-09-19T20:30:37;2.90;;;1.27;;
55316;SDS011;41178;48.956;8.130;2023-09-19T20:35:45;2.65;;;1.48;;
55316;SDS011;41178;48.956;8.130;2023-09-19T20:40:47;2.97;;;1.48;;
55316;SDS011;41178;48.956;8.130;2023-09-19T20:45:49;1.42;;;1.33;;
55316;SDS011;41178;48.956;8.130;2023-09-19T20:50:54;1.35;;;1.25;;
55316;SDS011;41178;48.956;8.130;2023-09-19T20:55:59;1.98;;;1.50;;
55316;SDS011;41178;48.956;8.130;2023-09-19T21:01:02;2.42;;;1.40;;
55316;SDS011;41178;48.956;8.130;2023-09-19T21:06:08;2.25;;;1.40;;
55316;SDS011;41178;48.956;8.130;2023-09-19T21:11:13;1.58;;;1.48;;
55316;SDS011;41178;48.956;8.130;2023-09-19T21:16:21;1.30;;;1.20;;
55316;SDS011;41178;48.956;8.130;2023-09-19T21:21:23;1.65;;;1.45;;
55316;SDS011;41178;48.956;8.130;2023-09-19T21:26:24;3.30;;;1.58;;
55316;SDS011;41178;48.956;8.130;2023-09-19T21:31:26;3.88;;;1.52;;
55316;SDS011;41178;48.956;8.130;2023-09-19T21:36:28;3.00;;;1.60;;
55316;SDS011;41178;48.956;8.130;2023-09-19T21:41:34;1.73;;;1.40;;
55316;SDS011;41178;48.956;8.130;2023-09-19T21:46:37;2.50;;;1.60;;
55316;SDS011;41178;48.956;8.130;2023-09-19T21:51:41;3.33;;;1.40;;
55316;SDS011;41178;48.956;8.130;2023-09-19T21:56:42;2.67;;;1.40;;
55316;SDS011;41178;48.956;8.130;2023-09-19T22:01:44;1.92;;;1.30;;
55316;SDS011;41178;48.956;8.130;2023-09-19T22:06:48;1.48;;;1.38;;
55316;SDS011;41178;48.956;8.130;2023-09-19T22:11:49;1.65;;;1.55;;
55316;SDS011;41178;48.956;8.130;2023-09-19T22:16:52;1.52;;;1.42;;
55316;SDS011;41178;48.956;8.130;2023-09-19T22:21:54;2.53;;;1.67;;
55316;SDS011;41178;48.956;8.130;2023-09-19T22:26:56;1.45;;;1.40;;
55316;SDS011;41178;48.956;8.130;2023-09-19T22:31:57;1.95;;;1.50;;
55316;SDS011;41178;48.956;8.130;2023-09-19T22:37:00;1.70;;;1.30;;
55316;SDS011;41178;48.956;8.130;2023-09-19T22:42:02;2.35;;;1.65;;
55316;SDS011;41178;48.956;8.130;2023-09-19T22:47:05;2.88;;;1.90;;
55316;SDS011;41178;48.956;8.130;2023-09-19T22:52:09;3.65;;;1.80;;
55316;SDS011;41178;48.956;8.130;2023-09-19T22:57:13;2.20;;;1.90;;
55316;SDS011;41178;48.956;8.130;2023-09-19T23:02:15;1.85;;;1.55;;
55316;SDS011;41178;48.956;8.130;2023-09-19T23:07:19;1.65;;;1.55;;
55316;SDS011;41178;48.956;8.130;2023-09-19T23:12:21;3.00;;;1.73;;
55316;SDS011;41178;48.956;8.130;2023-09-19T23:17:25;2.40;;;1.60;;
55316;SDS011;41178;48.956;8.130;2023-09-19T23:22:27;2.33;;;1.70;;
55316;SDS011;41178;48.956;8.130;2023-09-19T23:27:30;1.70;;;1.40;;
55316;SDS011;41178;48.956;8.130;2023-09-19T23:32:37;2.50;;;1.93;;
55316;SDS011;41178;48.956;8.130;2023-09-19T23:37:39;2.55;;;1.83;;
55316;SDS011;41178;48.956;8.130;2023-09-19T23:42:41;1.73;;;1.63;;
55316;SDS011;41178;48.956;8.130;2023-09-19T23:47:43;4.67;;;2.30;;
55316;SDS011;41178;48.956;8.130;2023-09-19T23:52:47;2.47;;;2.27;;
55316;SDS011;41178;48.956;8.130;2023-09-19T23:57:49;2.20;;;1.60;;
